createdAt,value
2018-10-09T00:00:45.392Z,10.78
2018-10-09T00:03:14.583Z,10.83
2018-10-09T00:05:43.822Z,10.74
2018-10-09T00:08:13.111Z,10.71
2018-10-09T00:10:48.808Z,10.69
2018-10-09T00:13:18.080Z,10.70
2018-10-09T00:15:47.319Z,10.72
2018-10-09T00:18:16.577Z,10.75
2018-10-09T00:20:45.891Z,10.75
2018-10-09T00:23:15.207Z,10.74
2018-10-09T00:25:44.481Z,10.73
2018-10-09T00:28:13.659Z,10.72
2018-10-09T00:30:42.977Z,10.70
2018-10-09T00:33:12.253Z,10.72
2018-10-09T00:35:41.531Z,10.69
2018-10-09T00:38:11.317Z,10.65
2018-10-09T00:40:40.470Z,10.76
2018-10-09T00:43:09.783Z,10.78
2018-10-09T00:45:39.102Z,10.72
2018-10-09T00:48:08.402Z,10.72
2018-10-09T00:50:37.690Z,10.68
2018-10-09T00:53:07.011Z,10.72
2018-10-09T00:55:36.242Z,10.66
2018-10-09T00:58:05.442Z,10.62
2018-10-09T01:00:34.574Z,10.61
2018-10-09T01:03:03.834Z,10.64
2018-10-09T01:05:33.055Z,10.61
2018-10-09T01:08:02.352Z,10.64
2018-10-09T01:10:31.534Z,10.54
2018-10-09T01:13:00.746Z,10.55
2018-10-09T01:15:30.175Z,10.56
2018-10-09T01:17:59.347Z,10.55
2018-10-09T01:20:31.906Z,10.46
2018-10-09T01:23:02.230Z,10.41
2018-10-09T01:25:31.446Z,10.38
2018-10-09T01:28:00.891Z,10.33
2018-10-09T01:30:30.207Z,10.36
2018-10-09T01:32:59.494Z,10.32
2018-10-09T01:35:28.658Z,10.29
2018-10-09T01:37:57.975Z,10.23
2018-10-09T01:40:27.294Z,10.22
2018-10-09T01:42:56.682Z,10.22
2018-10-09T01:45:26.010Z,10.20
2018-10-09T01:47:55.295Z,10.23
2018-10-09T01:50:24.546Z,10.26
2018-10-09T01:52:53.974Z,10.22
2018-10-09T01:55:23.154Z,10.23
2018-10-09T01:57:52.334Z,10.22
2018-10-09T02:00:21.526Z,10.26
2018-10-09T02:02:50.634Z,10.27
2018-10-09T02:05:19.841Z,10.29
2018-10-09T02:07:49.028Z,10.37
2018-10-09T02:10:18.114Z,10.41
2018-10-09T02:12:47.397Z,10.47
2018-10-09T02:15:16.509Z,10.53
2018-10-09T02:17:45.663Z,10.50
2018-10-09T02:20:14.910Z,10.59
2018-10-09T02:22:44.164Z,10.63
2018-10-09T02:25:13.467Z,10.68
2018-10-09T02:27:42.747Z,10.66
2018-10-09T02:30:12.056Z,10.71
2018-10-09T02:32:41.330Z,10.71
2018-10-09T02:35:10.497Z,10.69
2018-10-09T02:37:39.699Z,10.66
2018-10-09T02:40:08.836Z,10.61
2018-10-09T02:42:38.160Z,10.58
2018-10-09T02:45:07.439Z,10.57
2018-10-09T02:47:36.638Z,10.53
2018-10-09T02:50:06.356Z,10.48
2018-10-09T02:52:35.546Z,10.40
2018-10-09T02:55:04.843Z,10.35
2018-10-09T02:57:34.299Z,10.28
2018-10-09T03:00:03.546Z,10.27
2018-10-09T03:02:32.847Z,10.25
2018-10-09T03:05:02.187Z,10.22
2018-10-09T03:07:31.370Z,10.20
2018-10-09T03:10:00.645Z,10.18
2018-10-09T03:12:29.810Z,10.12
2018-10-09T03:14:59.020Z,10.06
2018-10-09T03:17:28.199Z,10.12
2018-10-09T03:19:57.415Z,10.26
2018-10-09T03:22:26.802Z,10.18
2018-10-09T03:24:56.268Z,10.27
2018-10-09T03:27:25.535Z,10.25
2018-10-09T03:29:54.950Z,10.44
2018-10-09T03:32:24.215Z,10.41
2018-10-09T03:34:53.620Z,10.37
2018-10-09T03:37:22.942Z,10.34
2018-10-09T03:39:52.160Z,10.17
2018-10-09T03:42:21.462Z,9.97
2018-10-09T03:44:50.578Z,9.92
2018-10-09T03:47:19.706Z,9.85
2018-10-09T03:49:48.935Z,9.78
2018-10-09T03:52:18.142Z,9.74
2018-10-09T03:54:47.414Z,9.70
2018-10-09T03:57:16.686Z,9.66
2018-10-09T03:59:45.770Z,9.58
2018-10-09T04:02:15.016Z,9.52
2018-10-09T04:04:44.280Z,9.45
2018-10-09T04:07:13.475Z,9.45
2018-10-09T04:09:42.683Z,9.43
2018-10-09T04:12:12.039Z,9.53
2018-10-09T04:14:41.283Z,9.47
2018-10-09T04:17:10.555Z,9.49
2018-10-09T04:19:39.815Z,9.43
2018-10-09T04:22:09.445Z,9.58
2018-10-09T04:24:38.751Z,9.63
2018-10-09T04:27:08.054Z,9.72
2018-10-09T04:29:37.324Z,9.60
2018-10-09T04:32:06.726Z,9.62
2018-10-09T04:34:36.035Z,9.84
2018-10-09T04:37:05.292Z,9.82
2018-10-09T04:39:34.530Z,9.96
2018-10-09T04:42:03.826Z,9.88
2018-10-09T04:44:32.999Z,9.92
2018-10-09T04:49:56.427Z,9.63
2018-10-09T04:52:25.555Z,9.57
2018-10-09T04:54:54.687Z,9.54
2018-10-09T04:57:23.855Z,9.47
2018-10-09T04:59:52.950Z,9.47
2018-10-09T05:02:22.170Z,9.44
2018-10-09T05:04:51.346Z,9.39
2018-10-09T05:07:20.247Z,9.39
2018-10-09T05:09:49.070Z,9.39
2018-10-09T05:12:17.934Z,9.35
2018-10-09T05:14:46.787Z,9.39
2018-10-09T05:17:15.610Z,9.41
2018-10-09T05:19:44.502Z,9.37
2018-10-09T05:22:13.355Z,9.38
2018-10-09T05:24:42.183Z,9.39
2018-10-09T05:27:11.043Z,9.40
2018-10-09T05:29:39.893Z,9.38
2018-10-09T05:32:08.793Z,9.36
2018-10-09T05:34:37.632Z,9.37
2018-10-09T05:37:06.507Z,9.34
2018-10-09T05:39:35.342Z,9.35
2018-10-09T05:42:04.242Z,9.40
2018-10-09T05:44:33.115Z,9.52
2018-10-09T05:47:01.994Z,9.59
2018-10-09T05:49:30.853Z,9.72
2018-10-09T05:51:59.914Z,9.77
2018-10-09T05:54:28.774Z,9.80
2018-10-09T05:56:57.664Z,9.87
2018-10-09T05:59:26.540Z,9.91
2018-10-09T06:01:55.444Z,10.05
2018-10-09T06:04:24.278Z,10.08
2018-10-09T06:06:53.214Z,10.12
2018-10-09T06:09:22.094Z,10.15
2018-10-09T06:11:50.958Z,10.17
2018-10-09T06:14:19.819Z,10.17
2018-10-09T06:16:48.682Z,10.21
2018-10-09T06:19:17.556Z,10.29
2018-10-09T06:21:46.416Z,10.36
2018-10-09T06:24:15.250Z,10.44
2018-10-09T06:26:44.114Z,10.57
2018-10-09T06:29:12.947Z,10.71
2018-10-09T06:31:41.871Z,10.86
2018-10-09T06:34:10.753Z,11.06
2018-10-09T06:36:39.582Z,11.27
2018-10-09T06:39:10.374Z,11.39
2018-10-09T06:41:39.857Z,11.33
2018-10-09T06:44:08.719Z,11.42
2018-10-09T06:46:37.558Z,11.47
2018-10-09T06:49:06.426Z,11.60
2018-10-09T06:51:35.271Z,11.65
2018-10-09T06:54:04.248Z,11.65
2018-10-09T06:56:33.083Z,11.73
2018-10-09T06:59:01.923Z,11.92
2018-10-09T07:01:30.797Z,12.27
2018-10-09T07:03:59.637Z,12.48
2018-10-09T07:06:28.553Z,12.63
2018-10-09T07:08:57.459Z,12.76
2018-10-09T07:11:26.393Z,12.87
2018-10-09T07:13:55.220Z,12.83
2018-10-09T07:16:24.127Z,12.97
2018-10-09T07:18:52.998Z,13.29
2018-10-09T07:21:21.846Z,13.43
2018-10-09T07:23:50.707Z,13.68
2018-10-09T07:26:19.545Z,13.90
2018-10-09T07:28:48.380Z,14.01
2018-10-09T07:31:17.231Z,14.16
2018-10-09T07:33:46.068Z,14.34
2018-10-09T07:36:14.951Z,14.57
2018-10-09T07:38:43.818Z,14.58
2018-10-09T07:41:12.683Z,14.73
2018-10-09T07:43:41.520Z,14.62
2018-10-09T07:46:10.403Z,14.77
2018-10-09T07:48:39.266Z,14.95
2018-10-09T07:51:08.486Z,14.87
2018-10-09T07:53:37.355Z,14.89
2018-10-09T07:56:06.222Z,14.88
2018-10-09T07:58:35.090Z,15.04
2018-10-09T08:01:03.985Z,15.03
2018-10-09T08:03:32.840Z,15.02
2018-10-09T08:06:01.738Z,15.25
2018-10-09T08:08:30.588Z,15.42
2018-10-09T08:10:59.661Z,15.59
2018-10-09T08:13:28.562Z,15.72
2018-10-09T08:15:57.391Z,15.90
2018-10-09T08:18:26.271Z,15.99
2018-10-09T08:20:55.103Z,16.21
2018-10-09T08:23:23.932Z,16.30
2018-10-09T08:25:52.855Z,16.43
2018-10-09T08:28:21.712Z,16.57
2018-10-09T08:30:50.543Z,16.75
2018-10-09T08:33:19.418Z,16.85
2018-10-09T08:35:48.278Z,16.97
2018-10-09T08:38:17.110Z,17.13
2018-10-09T08:40:45.955Z,17.18
2018-10-09T08:43:14.803Z,17.27
2018-10-09T08:45:43.650Z,17.41
2018-10-09T08:48:12.488Z,17.52
2018-10-09T08:50:41.370Z,17.39
2018-10-09T08:53:10.204Z,17.61
2018-10-09T08:55:39.303Z,17.71
2018-10-09T08:58:08.179Z,17.69
2018-10-09T09:00:37.028Z,17.89
2018-10-09T09:03:05.931Z,18.05
2018-10-09T09:05:34.771Z,18.19
2018-10-09T09:08:03.635Z,18.37
2018-10-09T09:10:32.470Z,18.46
2018-10-09T09:13:01.319Z,18.41
2018-10-09T09:15:30.219Z,18.37
2018-10-09T09:17:59.038Z,18.53
2018-10-09T09:20:28.039Z,18.56
2018-10-09T09:22:56.963Z,18.88
2018-10-09T09:25:25.817Z,18.95
2018-10-09T09:27:54.679Z,19.09
2018-10-09T09:30:23.519Z,19.18
2018-10-09T09:32:52.630Z,19.07
2018-10-09T09:35:21.485Z,19.24
2018-10-09T09:37:50.344Z,19.50
2018-10-09T09:40:19.207Z,19.63
2018-10-09T09:42:48.062Z,19.97
2018-10-09T09:45:16.979Z,19.81
2018-10-09T09:47:45.825Z,20.12
2018-10-09T09:50:14.667Z,19.87
2018-10-09T09:52:43.517Z,19.58
2018-10-09T09:55:12.363Z,19.68
2018-10-09T09:57:41.224Z,19.70
2018-10-09T10:00:14.977Z,20.12
2018-10-09T10:02:43.856Z,20.18
2018-10-09T10:05:12.735Z,20.45
2018-10-09T10:07:41.582Z,20.47
2018-10-09T10:10:10.477Z,20.74
2018-10-09T10:12:39.332Z,20.13
2018-10-09T10:15:08.339Z,20.50
2018-10-09T10:17:37.207Z,20.94
2018-10-09T10:20:06.150Z,21.18
2018-10-09T10:22:34.977Z,21.29
2018-10-09T10:25:03.851Z,20.95
2018-10-09T10:27:32.870Z,20.77
2018-10-09T10:30:01.707Z,20.99
2018-10-09T10:32:30.546Z,20.63
2018-10-09T10:34:59.394Z,21.29
2018-10-09T10:37:28.239Z,21.25
2018-10-09T10:39:57.170Z,21.73
2018-10-09T10:42:26.022Z,22.20
2018-10-09T10:44:54.890Z,22.37
2018-10-09T10:47:23.744Z,21.88
2018-10-09T10:49:52.603Z,21.84
2018-10-09T10:52:21.449Z,21.92
2018-10-09T10:54:50.313Z,21.68
2018-10-09T10:57:19.172Z,21.55
2018-10-09T10:59:48.004Z,22.18
2018-10-09T11:02:16.863Z,22.68
2018-10-09T11:04:45.735Z,22.89
2018-10-09T11:07:14.602Z,22.84
2018-10-09T11:09:43.447Z,23.09
2018-10-09T11:12:12.303Z,23.16
2018-10-09T11:14:41.157Z,23.35
2018-10-09T11:17:10.075Z,23.33
2018-10-09T11:19:39.163Z,23.57
2018-10-09T11:22:08.202Z,23.61
2018-10-09T11:24:37.056Z,23.06
2018-10-09T11:27:05.959Z,23.47
2018-10-09T11:29:34.808Z,23.71
2018-10-09T11:32:03.668Z,23.67
2018-10-09T11:34:32.555Z,23.39
2018-10-09T11:37:01.451Z,23.68
2018-10-09T11:39:30.326Z,23.92
2018-10-09T11:41:59.180Z,23.53
2018-10-09T11:44:28.066Z,23.53
2018-10-09T11:46:56.995Z,23.70
2018-10-09T11:49:25.859Z,23.66
2018-10-09T11:51:54.694Z,23.42
2018-10-09T11:54:23.514Z,23.03
2018-10-09T11:56:52.361Z,22.90
2018-10-09T11:59:21.211Z,22.81
2018-10-09T12:01:50.136Z,22.53
2018-10-09T12:04:18.919Z,22.87
2018-10-09T12:06:47.763Z,23.02
2018-10-09T12:09:16.591Z,22.83
2018-10-09T12:11:45.474Z,23.38
2018-10-09T12:14:14.354Z,23.66
2018-10-09T12:16:43.255Z,23.65
2018-10-09T12:19:12.146Z,23.49
2018-10-09T12:21:40.995Z,23.27
2018-10-09T12:24:09.867Z,23.46
2018-10-09T12:26:38.738Z,23.40
2018-10-09T12:29:07.718Z,23.89
2018-10-09T12:31:36.619Z,23.91
2018-10-09T12:34:06.082Z,24.01
2018-10-09T12:36:35.055Z,23.82
2018-10-09T12:39:04.926Z,23.77
2018-10-09T12:41:33.891Z,24.14
2018-10-09T12:44:02.812Z,24.46
2018-10-09T12:46:31.591Z,24.80
2018-10-09T12:49:00.471Z,25.59
2018-10-09T12:51:29.338Z,25.83
2018-10-09T12:53:58.186Z,26.85
2018-10-09T12:56:27.071Z,27.40
2018-10-09T12:58:55.921Z,27.41
2018-10-09T13:01:24.811Z,27.60
2018-10-09T13:03:53.716Z,27.49
2018-10-09T13:06:22.604Z,27.27
2018-10-09T13:08:51.443Z,27.07
2018-10-09T13:11:20.320Z,25.78
2018-10-09T13:13:49.203Z,25.57
2018-10-09T13:16:18.331Z,25.96
2018-10-09T13:18:47.199Z,26.01
2018-10-09T13:21:16.256Z,25.49
2018-10-09T13:23:44.928Z,25.23
2018-10-09T13:26:14.083Z,25.11
2018-10-09T13:28:42.905Z,24.72
2018-10-09T13:31:11.755Z,24.77
2018-10-09T13:33:40.586Z,24.81
2018-10-09T13:36:09.460Z,24.27
2018-10-09T13:38:38.311Z,24.46
2018-10-09T13:41:07.229Z,24.33
2018-10-09T13:43:36.037Z,24.13
2018-10-09T13:46:04.874Z,24.12
2018-10-09T13:48:33.716Z,24.15
2018-10-09T13:51:02.583Z,24.10
2018-10-09T13:53:31.426Z,24.06
2018-10-09T13:56:00.319Z,23.63
2018-10-09T13:58:29.198Z,23.34
2018-10-09T14:00:58.050Z,22.79
2018-10-09T14:03:26.879Z,22.77
2018-10-09T14:05:55.752Z,22.40
2018-10-09T14:08:24.599Z,22.35
2018-10-09T14:10:53.443Z,22.45
2018-10-09T14:13:22.263Z,22.49
2018-10-09T14:15:51.115Z,22.53
2018-10-09T14:18:19.959Z,22.31
2018-10-09T14:20:48.813Z,22.41
2018-10-09T14:23:17.707Z,22.22
2018-10-09T14:25:46.563Z,21.80
2018-10-09T14:28:15.405Z,22.05
2018-10-09T14:30:44.276Z,22.26
2018-10-09T14:33:13.123Z,22.38
2018-10-09T14:35:42.048Z,22.65
2018-10-09T14:38:10.995Z,22.62
2018-10-09T14:40:39.855Z,22.23
2018-10-09T14:43:08.727Z,22.30
2018-10-09T14:45:37.602Z,22.12
2018-10-09T14:48:06.455Z,21.70
2018-10-09T14:50:35.299Z,21.42
2018-10-09T14:53:04.124Z,21.25
2018-10-09T14:55:33.019Z,21.24
2018-10-09T14:58:01.883Z,21.24
2018-10-09T15:00:30.743Z,21.22
2018-10-09T15:02:59.602Z,21.03
2018-10-09T15:05:28.568Z,20.80
2018-10-09T15:07:57.403Z,20.34
2018-10-09T15:10:26.262Z,20.46
2018-10-09T15:12:55.108Z,20.40
2018-10-09T15:15:23.975Z,20.52
2018-10-09T15:17:52.848Z,20.17
2018-10-09T15:20:21.699Z,20.24
2018-10-09T15:22:50.551Z,20.46
2018-10-09T15:25:19.393Z,20.78
2018-10-09T15:27:48.228Z,20.86
2018-10-09T15:30:17.103Z,20.77
2018-10-09T15:32:45.967Z,20.65
2018-10-09T15:35:14.846Z,20.66
2018-10-09T15:37:43.727Z,20.81
2018-10-09T15:40:12.567Z,20.94
2018-10-09T15:42:41.499Z,20.54
2018-10-09T15:45:10.392Z,20.54
2018-10-09T15:47:39.296Z,20.43
2018-10-09T15:50:08.142Z,20.42
2018-10-09T15:52:37.040Z,20.03
2018-10-09T15:55:06.027Z,19.62
2018-10-09T15:57:34.879Z,19.35
2018-10-09T16:00:03.855Z,19.15
2018-10-09T16:02:32.735Z,18.67
2018-10-09T16:05:01.600Z,18.51
2018-10-09T16:07:30.463Z,18.11
2018-10-09T16:09:59.319Z,18.09
2018-10-09T16:12:28.163Z,17.75
2018-10-09T16:14:57.015Z,17.48
2018-10-09T16:17:25.868Z,17.41
2018-10-09T16:19:54.723Z,17.15
2018-10-09T16:22:23.590Z,17.01
2018-10-09T16:24:52.455Z,16.76
2018-10-09T16:27:21.327Z,16.79
2018-10-09T16:29:50.219Z,16.59
2018-10-09T16:32:19.124Z,16.48
2018-10-09T16:34:47.931Z,16.30
2018-10-09T16:37:16.783Z,16.21
2018-10-09T16:39:45.646Z,16.11
2018-10-09T16:42:14.503Z,16.05
2018-10-09T16:44:43.364Z,15.96
2018-10-09T16:47:12.222Z,15.85
2018-10-09T16:49:41.062Z,15.80
2018-10-09T16:52:09.911Z,15.71
2018-10-09T16:54:39.466Z,15.61
2018-10-09T16:57:08.307Z,15.49
2018-10-09T16:59:37.135Z,15.45
2018-10-09T17:02:06.462Z,15.41
2018-10-09T17:04:35.348Z,15.31
2018-10-09T17:07:04.260Z,15.26
2018-10-09T17:09:33.131Z,15.27
2018-10-09T17:12:01.997Z,15.18
2018-10-09T17:14:30.844Z,15.03
2018-10-09T17:16:59.727Z,14.90
2018-10-09T17:19:28.559Z,14.77
2018-10-09T17:21:57.399Z,14.79
2018-10-09T17:24:27.148Z,14.84
2018-10-09T17:26:56.055Z,14.73
2018-10-09T17:29:24.904Z,14.76
2018-10-09T17:31:53.769Z,14.70
2018-10-09T17:34:22.587Z,14.60
2018-10-09T17:36:51.495Z,14.61
2018-10-09T17:39:20.433Z,14.61
2018-10-09T17:41:49.238Z,14.59
2018-10-09T17:44:18.093Z,14.56
2018-10-09T17:46:46.980Z,14.51
2018-10-09T17:49:15.828Z,14.43
2018-10-09T17:51:44.672Z,14.39
2018-10-09T17:54:13.501Z,14.30
2018-10-09T17:56:42.362Z,14.20
2018-10-09T17:59:11.187Z,14.13
2018-10-09T18:01:40.070Z,14.09
2018-10-09T18:04:08.915Z,14.02
2018-10-09T18:06:37.780Z,13.92
2018-10-09T18:09:10.075Z,14.00
2018-10-09T18:11:39.022Z,13.91
2018-10-09T18:14:07.907Z,13.85
2018-10-09T18:16:36.787Z,13.81
2018-10-09T18:19:05.652Z,13.72
2018-10-09T18:21:35.447Z,13.69
2018-10-09T18:24:04.829Z,13.66
2018-10-09T18:26:33.686Z,13.59
2018-10-09T18:29:02.529Z,13.67
2018-10-09T18:31:31.398Z,13.69
2018-10-09T18:34:00.259Z,13.77
2018-10-09T18:36:29.267Z,13.73
2018-10-09T18:38:58.550Z,13.67
2018-10-09T18:41:27.909Z,13.62
2018-10-09T18:43:57.027Z,13.58
2018-10-09T18:46:26.346Z,13.55
2018-10-09T18:48:55.515Z,13.48
2018-10-09T18:51:24.781Z,13.44
2018-10-09T18:53:53.614Z,13.51
2018-10-09T18:56:22.478Z,13.50
2018-10-09T18:58:51.371Z,13.44
2018-10-09T19:01:20.174Z,13.37
2018-10-09T19:03:49.022Z,13.33
2018-10-09T19:06:17.896Z,13.30
2018-10-09T19:08:46.715Z,13.23
2018-10-09T19:11:15.654Z,13.21
2018-10-09T19:13:44.473Z,13.18
2018-10-09T19:16:14.177Z,13.09
2018-10-09T19:18:43.030Z,13.07
2018-10-09T19:21:11.858Z,12.98
2018-10-09T19:23:40.732Z,12.96
2018-10-09T19:26:09.613Z,12.93
2018-10-09T19:28:38.527Z,12.94
2018-10-09T19:31:07.896Z,12.92
2018-10-09T19:33:37.067Z,12.90
2018-10-09T19:36:05.931Z,12.91
2018-10-09T19:38:34.771Z,12.93
2018-10-09T19:41:03.611Z,12.84
2018-10-09T19:43:32.479Z,12.79
2018-10-09T19:46:01.306Z,12.82
2018-10-09T19:48:30.132Z,12.77
2018-10-09T19:50:59.194Z,12.76
2018-10-09T19:53:27.968Z,12.73
2018-10-09T19:55:56.806Z,12.68
2018-10-09T19:58:25.636Z,12.67
2018-10-09T20:00:54.479Z,12.62
2018-10-09T20:03:23.315Z,12.57
2018-10-09T20:05:52.166Z,12.51
2018-10-09T20:08:20.994Z,12.50
2018-10-09T20:10:49.867Z,12.47
2018-10-09T20:13:18.720Z,12.56
2018-10-09T20:15:47.566Z,12.71
2018-10-09T20:18:16.410Z,12.53
2018-10-09T20:20:45.289Z,12.44
2018-10-09T20:23:14.122Z,12.37
2018-10-09T20:25:42.977Z,12.33
2018-10-09T20:28:11.811Z,12.25
2018-10-09T20:30:40.658Z,12.20
2018-10-09T20:33:09.800Z,12.20
2018-10-09T20:35:38.712Z,12.16
2018-10-09T20:38:07.838Z,12.15
2018-10-09T20:40:37.126Z,12.22
2018-10-09T20:43:05.971Z,12.20
2018-10-09T20:45:34.814Z,12.20
2018-10-09T20:48:03.650Z,12.18
2018-10-09T20:50:32.496Z,12.14
2018-10-09T20:53:01.319Z,12.14
2018-10-09T20:55:30.162Z,12.11
2018-10-09T20:57:58.988Z,12.16
2018-10-09T21:00:27.841Z,12.18
2018-10-09T21:02:56.687Z,12.16
2018-10-09T21:05:25.519Z,12.13
2018-10-09T21:07:54.351Z,12.11
2018-10-09T21:10:23.170Z,12.07
2018-10-09T21:12:52.024Z,12.12
2018-10-09T21:15:20.926Z,12.07
2018-10-09T21:17:49.926Z,12.06
2018-10-09T21:20:18.626Z,12.08
2018-10-09T21:22:47.475Z,11.99
2018-10-09T21:25:16.346Z,11.93
2018-10-09T21:27:45.263Z,11.95
2018-10-09T21:30:14.579Z,11.88
2018-10-09T21:32:43.735Z,11.89
2018-10-09T21:35:12.576Z,11.90
2018-10-09T21:37:41.411Z,11.85
2018-10-09T21:40:10.232Z,11.81
2018-10-09T21:42:39.332Z,11.77
2018-10-09T21:45:08.674Z,11.74
2018-10-09T21:47:38.513Z,11.69
2018-10-09T21:50:07.398Z,11.73
2018-10-09T21:52:36.235Z,11.67
2018-10-09T21:55:05.130Z,11.65
2018-10-09T21:57:33.951Z,11.61
2018-10-09T22:00:02.804Z,11.59
2018-10-09T22:02:31.614Z,11.68
2018-10-09T22:05:00.515Z,11.61
2018-10-09T22:07:29.379Z,11.66
2018-10-09T22:09:58.222Z,11.78
2018-10-09T22:12:27.054Z,11.74
2018-10-09T22:14:55.887Z,11.69
2018-10-09T22:17:24.731Z,11.68
2018-10-09T22:19:53.551Z,11.75
2018-10-09T22:22:22.419Z,11.88
2018-10-09T22:24:51.231Z,11.77
2018-10-09T22:27:20.083Z,11.78
2018-10-09T22:29:48.920Z,11.72
2018-10-09T22:32:18.088Z,11.79
2018-10-09T22:34:47.368Z,11.81
2018-10-09T22:37:16.235Z,11.88
2018-10-09T22:39:45.054Z,11.93
2018-10-09T22:42:14.427Z,11.93
2018-10-09T22:44:43.623Z,11.86
2018-10-09T22:47:12.926Z,12.06
2018-10-09T22:49:42.180Z,12.04
2018-10-09T22:52:11.374Z,11.99
2018-10-09T22:54:40.222Z,11.99
2018-10-09T22:57:09.080Z,12.07
2018-10-09T22:59:37.895Z,12.11
2018-10-09T23:02:06.793Z,12.06
2018-10-09T23:04:35.627Z,12.08
2018-10-09T23:07:04.578Z,12.07
2018-10-09T23:09:33.407Z,12.09
2018-10-09T23:12:02.658Z,12.13
2018-10-09T23:14:31.496Z,12.28
2018-10-09T23:17:00.348Z,12.20
2018-10-09T23:19:29.532Z,12.06
2018-10-09T23:21:58.678Z,11.98
2018-10-09T23:24:28.047Z,12.03
2018-10-09T23:26:56.898Z,12.03
2018-10-09T23:29:25.732Z,12.00
2018-10-09T23:31:54.578Z,12.16
2018-10-09T23:34:23.399Z,12.12
2018-10-09T23:36:52.219Z,12.01
2018-10-09T23:39:21.047Z,12.00
2018-10-09T23:41:50.354Z,11.92
2018-10-09T23:44:19.627Z,11.87
2018-10-09T23:46:48.903Z,11.98
2018-10-09T23:49:17.729Z,12.05
2018-10-09T23:51:46.563Z,11.89
2018-10-09T23:54:15.435Z,12.11
2018-10-09T23:56:44.294Z,12.17
2018-10-09T23:59:13.136Z,12.15
